Time;durP1;ratioP1;P1;durP2;ratioP2;P2;SDS_P1;SDS_P2;PMS_P1;PMS_P2;Temp;Humidity;BMP_temperature;BMP_pressure;BME280_temperature;BME280_humidity;BME280_pressure;Samples;Min_cycle;Max_cycle;Signal;HPM_P1;HPM_P2
2022/08/26 00:02:11;;;;;;;6.82;6.13;;;20.10;60.00;;;16.35;84.16;95301.19;4972191;28;20022;-47
2022/08/26 00:04:37;;;;;;;13.88;6.13;;;20.10;60.30;;;16.29;84.59;95297.84;4972675;28;20026;-48
2022/08/26 00:07:03;;;;;;;7.70;6.22;;;20.10;60.10;;;16.32;84.63;95301.81;4972476;28;20382;-45
2022/08/26 00:09:37;;;;;;;8.25;5.72;;;20.10;60.30;;;16.30;84.87;95302.13;4973804;28;20501;-46
2022/08/26 00:12:04;;;;;;;7.35;6.00;;;20.10;60.60;;;16.29;85.00;95305.91;4955830;28;20032;-47
2022/08/26 00:14:42;;;;;;;6.93;6.13;;;20.10;60.40;;;16.25;85.31;95296.06;4956305;28;20041;-47
2022/08/26 00:17:11;;;;;;;8.10;6.40;;;20.00;60.70;;;16.24;85.05;95300.66;4972734;28;20549;-45
2022/08/26 00:19:40;;;;;;;10.05;6.45;;;20.00;60.70;;;16.21;85.49;95297.81;4972372;28;20037;-49
2022/08/26 00:22:09;;;;;;;6.85;6.00;;;20.00;60.80;;;16.17;85.17;95293.03;4955709;28;20037;-45
2022/08/26 00:24:35;;;;;;;6.38;5.72;;;20.00;60.90;;;16.15;85.78;95299.81;4940283;28;20030;-45
2022/08/26 00:27:07;;;;;;;7.45;6.57;;;19.90;60.70;;;16.11;86.06;95296.94;4960782;28;20029;-49
2022/08/26 00:29:45;;;;;;;7.75;6.78;;;19.90;61.20;;;16.10;85.88;95295.34;4937030;28;20045;-46
2022/08/26 00:32:11;;;;;;;8.90;6.65;;;19.90;61.40;;;16.08;85.84;95294.09;4953585;28;20493;-47
2022/08/26 00:34:37;;;;;;;10.68;6.47;;;19.90;61.10;;;16.06;86.07;95297.06;4954095;28;20038;-54
2022/08/26 00:37:04;;;;;;;7.03;6.38;;;19.90;61.30;;;16.04;85.89;95293.88;4920942;28;20058;-48
2022/08/26 00:39:31;;;;;;;6.60;5.68;;;19.80;61.40;;;16.03;86.01;95300.34;4937136;28;20117;-46
2022/08/26 00:42:09;;;;;;;8.55;6.50;;;19.90;61.50;;;16.02;86.32;95298.78;4953546;28;20030;-49
2022/08/26 00:44:38;;;;;;;7.32;6.45;;;19.80;61.80;;;16.03;86.21;95299.56;4936904;28;20045;-50
2022/08/26 00:47:20;;;;;;;8.18;6.60;;;19.80;61.60;;;16.05;85.93;95297.38;4957075;28;20018;-48
2022/08/26 00:49:48;;;;;;;8.33;6.23;;;19.80;61.80;;;15.96;86.88;95303.47;4957199;28;20037;-50
2022/08/26 00:52:20;;;;;;;9.32;6.22;;;19.80;61.50;;;15.99;86.87;95288.66;4955273;28;20060;-48
2022/08/26 00:55:21;;;;;;;8.43;6.50;;;19.80;61.90;;;15.99;86.58;95288.66;4955977;28;20057;-46
2022/08/26 00:57:50;;;;;;;7.47;5.97;;;19.80;62.00;;;15.94;87.00;95300.28;4940887;28;20117;-46
2022/08/26 01:00:27;;;;;;;6.80;5.47;;;19.80;61.90;;;15.93;87.21;95289.88;4956192;28;20026;-46
2022/08/26 01:02:56;;;;;;;6.80;6.03;;;19.80;62.10;;;15.94;87.13;95300.28;4955298;28;20050;-45
2022/08/26 01:05:24;;;;;;;8.55;7.00;;;19.70;62.00;;;15.92;86.95;95304.41;4955580;28;20096;-50
2022/08/26 01:07:55;;;;;;;7.70;6.63;;;19.70;62.00;;;15.90;87.27;95298.53;4972530;28;20076;-46
2022/08/26 01:10:30;;;;;;;10.52;6.18;;;19.70;62.40;;;15.90;87.03;95304.69;4939582;28;20028;-49
2022/08/26 01:13:08;;;;;;;10.00;6.72;;;19.70;62.40;;;15.90;86.90;95302.00;4938833;28;20033;-50
2022/08/26 01:15:48;;;;;;;9.18;6.70;;;19.70;62.40;;;15.87;87.21;95297.25;4955577;28;20034;-46
2022/08/26 01:18:16;;;;;;;13.10;6.53;;;19.70;62.50;;;15.85;86.99;95299.44;4955882;28;20022;-50
2022/08/26 01:21:27;;;;;;;7.78;6.68;;;19.70;62.30;;;15.83;87.15;95298.97;4938892;28;20643;-53
2022/08/26 01:23:58;;;;;;;9.27;6.78;;;19.70;62.50;;;15.82;87.28;95307.31;4970998;28;20041;-51
2022/08/26 01:26:35;;;;;;;8.27;6.43;;;19.60;62.40;;;15.81;87.29;95303.03;4951341;28;20057;-47
2022/08/26 01:29:08;;;;;;;6.93;6.10;;;19.60;62.70;;;15.81;87.45;95303.03;4936222;28;20027;-45
2022/08/26 01:31:53;;;;;;;7.75;6.10;;;19.60;62.60;;;15.81;87.01;95306.53;4952800;28;20057;-46
2022/08/26 01:34:34;;;;;;;6.47;5.88;;;19.60;62.70;;;15.78;87.18;95304.44;4944162;28;20100;-47
2022/08/26 01:37:35;;;;;;;6.95;6.03;;;19.60;62.70;;;15.76;87.84;95303.94;4970825;28;20107;-48
2022/08/26 01:40:05;;;;;;;8.13;6.88;;;19.60;62.70;;;15.76;87.47;95311.22;4955363;28;20037;-45
2022/08/26 01:42:34;;;;;;;9.20;6.47;;;19.60;62.50;;;15.75;87.68;95305.03;4971602;28;20026;-46
2022/08/26 01:45:17;;;;;;;6.93;5.60;;;19.60;62.80;;;15.75;88.19;95312.31;4971911;28;20049;-48
2022/08/26 01:47:47;;;;;;;8.45;6.55;;;19.60;63.10;;;15.77;88.21;95307.44;4955521;28;20022;-47
2022/08/26 01:50:31;;;;;;;6.57;5.97;;;19.60;62.90;;;15.77;88.13;95302.06;4955136;28;20485;-46
2022/08/26 01:53:11;;;;;;;8.48;6.47;;;19.60;63.10;;;15.75;88.29;95310.41;4971170;28;20420;-45
2022/08/26 01:55:45;;;;;;;8.60;6.43;;;19.60;63.10;;;15.77;88.30;95310.13;4970632;28;20046;-48
2022/08/26 01:58:41;;;;;;;8.10;6.90;;;19.60;63.20;;;15.77;88.28;95304.75;4955278;28;20026;-45
2022/08/26 02:01:08;;;;;;;10.43;6.20;;;19.50;63.30;;;15.79;87.89;95316.75;4956008;28;20026;-50
2022/08/26 02:04:19;;;;;;;6.53;5.90;;;19.60;63.10;;;15.77;88.18;95316.28;4954563;28;20026;-48
2022/08/26 02:06:47;;;;;;;11.45;6.70;;;19.60;63.40;;;15.80;88.20;95318.38;4971517;28;20046;-45
2022/08/26 02:09:17;;;;;;;7.13;6.22;;;19.60;63.20;;;15.81;88.34;95311.88;4954615;28;20400;-45
2022/08/26 02:11:43;;;;;;;7.70;6.63;;;19.60;63.40;;;15.84;88.02;95318.56;4954125;28;20028;-48
2022/08/26 02:14:45;;;;;;;7.78;6.60;;;19.60;63.40;;;15.84;88.01;95318.56;4971614;28;20195;-46
2022/08/26 02:17:14;;;;;;;11.90;6.70;;;19.60;63.60;;;15.83;88.03;95314.28;4955418;28;20022;-51
2022/08/26 02:19:47;;;;;;;8.73;6.47;;;19.60;63.30;;;15.83;87.97;95314.28;4954806;28;20026;-46
2022/08/26 02:22:19;;;;;;;8.05;6.50;;;19.60;63.50;;;15.81;88.32;95313.78;4953803;28;20417;-44
2022/08/26 02:25:11;;;;;;;8.48;6.30;;;19.60;63.50;;;15.79;88.50;95316.75;4953897;28;20078;-49
2022/08/26 02:27:47;;;;;;;11.70;6.90;;;19.60;63.60;;;15.80;88.21;95318.38;4953158;28;20081;-45
2022/08/26 02:30:31;;;;;;;8.13;6.63;;;19.60;63.60;;;15.75;88.46;95317.69;4950681;28;20088;-46
2022/08/26 02:33:06;;;;;;;8.93;7.65;;;19.60;63.60;;;15.76;88.20;95311.22;4938245;28;20026;-45
2022/08/26 02:35:35;;;;;;;7.53;6.80;;;19.50;63.70;;;15.72;88.19;95314.50;4937934;28;20034;-52
2022/08/26 02:38:09;;;;;;;9.50;7.18;;;19.50;63.60;;;15.69;88.36;95311.63;4970159;28;20030;-48
2022/08/26 02:40:40;;;;;;;9.02;7.25;;;19.50;63.80;;;15.65;88.57;95310.63;4953638;28;20030;-45
2022/08/26 02:43:08;;;;;;;7.97;7.18;;;19.50;63.80;;;15.61;88.49;95313.13;4954313;28;20381;-44
2022/08/26 02:45:35;;;;;;;7.20;6.50;;;19.50;63.80;;;15.58;88.71;95305.69;4971254;28;20053;-47
2022/08/26 02:48:17;;;;;;;7.68;6.88;;;19.40;63.80;;;15.52;89.16;95303.41;4970982;28;20366;-44
2022/08/26 02:50:44;;;;;;;9.52;7.18;;;19.40;64.10;;;15.49;89.12;95312.84;4953984;28;20034;-47
2022/08/26 02:53:13;;;;;;;9.45;7.25;;;19.40;63.80;;;15.47;89.38;95307.78;4953995;28;20362;-46
2022/08/26 02:55:42;;;;;;;11.32;7.50;;;19.40;64.10;;;15.44;89.48;95311.06;4938433;28;20082;-47
2022/08/26 02:58:12;;;;;;;7.68;6.90;;;19.30;64.20;;;15.44;89.37;95307.59;4954174;28;20030;-48
2022/08/26 03:00:38;;;;;;;8.57;6.82;;;19.30;64.30;;;15.40;89.51;95302.03;4937575;28;20117;-47
2022/08/26 03:03:05;;;;;;;11.13;7.38;;;19.30;64.30;;;15.38;89.78;95303.41;4953604;28;20018;-45
2022/08/26 03:05:30;;;;;;;8.40;7.50;;;19.30;64.30;;;15.35;89.53;95307.50;4969661;28;20491;-45
2022/08/26 03:07:56;;;;;;;10.93;7.13;;;19.30;64.40;;;15.32;90.20;95307.31;4937887;28;20108;-46
2022/08/26 03:10:25;;;;;;;8.75;7.22;;;19.20;64.40;;;15.31;90.55;95309.19;4971133;28;20026;-45
2022/08/26 03:12:54;;;;;;;8.38;7.20;;;19.20;64.60;;;15.30;90.50;95310.31;4953865;28;20034;-46
2022/08/26 03:15:32;;;;;;;10.48;6.97;;;19.20;64.70;;;15.30;90.30;95313.00;4969750;28;20116;-44
2022/08/26 03:18:01;;;;;;;8.52;7.00;;;19.10;64.70;;;15.28;90.21;95307.91;4953688;28;20037;-48
2022/08/26 03:20:33;;;;;;;12.73;7.20;;;19.20;64.60;;;15.23;90.66;95309.91;4969562;28;20037;-45
2022/08/26 03:22:59;;;;;;;8.60;6.40;;;19.10;64.70;;;15.20;90.75;95303.28;4970698;28;20076;-45
2022/08/26 03:25:26;;;;;;;9.10;6.85;;;19.10;64.70;;;15.18;91.11;95305.44;4970029;28;20057;-45
2022/08/26 03:27:54;;;;;;;9.65;7.82;;;19.10;64.70;;;15.17;90.90;95295.81;4965848;28;20053;-46
2022/08/26 03:33:11;;;;;;;10.13;6.93;;;19.00;64.90;;;15.14;90.57;95306.34;4951510;29;20085;-46
2022/08/26 03:35:44;;;;;;;8.85;7.00;;;19.00;65.00;;;15.10;90.89;95300.78;4950546;29;20113;-45
2022/08/26 03:38:10;;;;;;;10.82;7.30;;;19.00;65.10;;;15.06;91.16;95299.78;4950391;28;20030;-45
2022/08/26 03:40:42;;;;;;;11.68;7.88;;;19.00;65.00;;;15.06;90.54;95304.38;4937336;28;20104;-45
2022/08/26 03:43:15;;;;;;;9.82;8.27;;;18.90;65.20;;;15.01;90.53;95294.53;4955299;28;20117;-46
2022/08/26 03:45:43;;;;;;;9.60;8.18;;;18.90;66.00;;;14.96;90.74;95302.69;4954626;28;20030;-49
2022/08/26 03:48:12;;;;;;;9.60;8.45;;;18.90;65.20;;;14.91;90.91;95303.56;4954128;28;20022;-46
2022/08/26 03:50:38;;;;;;;8.85;7.95;;;18.90;65.30;;;14.84;91.42;95305.06;4937735;28;20026;-45
2022/08/26 03:53:12;;;;;;;14.27;7.63;;;18.80;66.00;;;14.80;92.28;95308.34;4966481;28;20030;-48
2022/08/26 03:55:39;;;;;;;8.88;7.97;;;18.80;65.60;;;14.78;92.29;95312.41;4956974;28;20508;-50
2022/08/26 03:58:10;;;;;;;11.05;7.80;;;18.70;65.40;;;14.77;92.71;95302.78;4956767;28;20026;-48
2022/08/26 04:00:36;;;;;;;9.13;7.70;;;18.70;65.70;;;14.78;92.74;95307.03;4972420;28;20068;-48
2022/08/26 04:03:02;;;;;;;8.40;7.53;;;18.70;65.60;;;14.75;93.18;95308.44;4972624;28;20512;-53
2022/08/26 04:05:28;;;;;;;8.77;7.85;;;18.70;65.70;;;14.76;92.85;95317.25;4971967;28;20018;-46
2022/08/26 04:07:53;;;;;;;9.38;8.02;;;18.70;65.80;;;14.76;92.88;95309.22;4973523;28;20176;-50
2022/08/26 04:10:26;;;;;;;9.80;7.68;;;18.70;65.90;;;14.71;92.99;95312.03;4940680;28;20026;-50
2022/08/26 04:12:52;;;;;;;11.18;7.88;;;18.60;66.10;;;14.73;93.23;95321.34;4957519;28;20030;-48
2022/08/26 04:15:25;;;;;;;10.25;8.35;;;18.60;65.90;;;14.70;93.32;95311.22;4940063;28;20034;-45
2022/08/26 04:17:54;;;;;;;11.23;8.18;;;18.60;67.00;;;14.72;93.33;95306.34;4956764;28;20092;-46
2022/08/26 04:20:25;;;;;;;10.10;8.70;;;18.60;66.20;;;14.73;93.13;95312.53;4955952;28;20113;-47
2022/08/26 04:22:52;;;;;;;11.57;8.82;;;18.60;66.30;;;14.70;93.39;95315.81;4956272;28;20022;-45
2022/08/26 04:25:17;;;;;;;11.65;8.48;;;18.60;66.20;;;14.69;93.84;95306.16;4956422;28;20076;-45
2022/08/26 04:27:46;;;;;;;12.30;8.73;;;18.60;66.30;;;14.70;93.49;95308.53;4973772;28;20411;-45
2022/08/26 04:30:12;;;;;;;10.20;9.10;;;18.60;66.40;;;14.70;93.34;95313.13;4973607;28;20032;-52
2022/08/26 04:32:38;;;;;;;12.70;9.13;;;18.60;66.40;;;14.70;93.07;95316.59;4971853;28;20018;-53
2022/08/26 04:35:05;;;;;;;12.85;9.63;;;18.50;66.40;;;14.69;92.79;95306.16;4973250;28;20032;-48
2022/08/26 04:37:32;;;;;;;13.25;9.95;;;18.60;66.50;;;14.65;92.63;95310.53;4956107;28;20100;-46
2022/08/26 04:40:08;;;;;;;13.55;9.52;;;18.50;66.40;;;14.60;92.53;95306.03;4973258;28;20385;-46
2022/08/26 04:42:35;;;;;;;18.52;10.45;;;18.50;66.60;;;14.54;92.81;95300.00;4955807;28;20481;-48
2022/08/26 04:45:03;;;;;;;12.02;9.75;;;18.50;66.40;;;14.51;92.91;95305.16;4973389;28;20120;-46
2022/08/26 04:47:29;;;;;;;11.95;9.50;;;18.50;66.60;;;14.49;93.18;95304.63;4939959;28;20053;-44
2022/08/26 04:49:56;;;;;;;10.80;9.70;;;18.50;66.60;;;14.46;93.81;95313.25;4972106;28;20053;-45
2022/08/26 04:52:25;;;;;;;13.02;10.30;;;18.50;66.60;;;14.44;94.00;95315.41;4939054;28;20117;-46
2022/08/26 04:54:51;;;;;;;10.40;8.45;;;18.40;66.80;;;14.43;93.80;95311.94;4971729;28;20034;-45
2022/08/26 04:57:22;;;;;;;10.80;8.52;;;18.50;66.80;;;14.42;94.07;95310.38;4972982;28;20076;-50
2022/08/26 04:59:51;;;;;;;14.10;8.88;;;18.50;66.80;;;14.46;94.52;95313.25;4956732;28;20057;-46
2022/08/26 05:02:18;;;;;;;9.43;8.48;;;18.50;67.00;;;14.50;94.37;95315.03;4971272;28;20022;-48
2022/08/26 05:04:47;;;;;;;11.32;8.48;;;18.50;66.80;;;14.64;94.70;95322.34;4971224;28;20029;-45
2022/08/26 05:07:12;;;;;;;11.18;8.60;;;18.50;67.00;;;14.77;94.14;95321.56;4989967;23;20046;-45
2022/08/26 05:09:40;;;;;;;10.25;8.00;;;18.60;67.00;;;14.94;93.49;95323.63;4972112;28;20026;-44
2022/08/26 05:12:06;;;;;;;10.80;8.15;;;18.70;67.00;;;15.09;92.58;95317.19;4972441;28;20049;-49
2022/08/26 05:14:32;;;;;;;11.13;7.97;;;18.80;67.00;;;15.25;91.54;95315.78;4971516;28;20034;-44
2022/08/26 05:16:58;;;;;;;11.38;8.10;;;18.90;67.00;;;15.42;91.18;95321.31;4959155;28;20370;-49
2022/08/26 05:19:24;;;;;;;13.77;7.75;;;19.00;66.90;;;15.60;90.91;95324.94;4957646;28;20122;-43
2022/08/26 05:21:56;;;;;;;9.50;8.45;;;19.10;66.80;;;15.72;89.92;95324.44;4962508;28;20028;-43
2022/08/26 05:24:25;;;;;;;9.73;7.47;;;19.20;66.70;;;15.87;89.63;95326.78;4971732;28;20500;-49
2022/08/26 05:26:53;;;;;;;15.02;7.63;;;19.40;66.40;;;16.06;88.96;95334.69;4960112;28;20030;-45
2022/08/26 05:29:23;;;;;;;7.55;6.72;;;19.60;66.20;;;16.29;88.00;95327.38;4963405;28;20030;-44
2022/08/26 05:31:52;;;;;;;10.35;6.97;;;19.80;66.80;;;16.53;87.64;95324.38;4970110;28;20021;-44
2022/08/26 05:34:19;;;;;;;8.75;6.63;;;20.00;65.70;;;16.81;86.76;95333.09;4955166;28;20037;-45
2022/08/26 05:36:46;;;;;;;9.15;6.07;;;20.20;65.30;;;17.08;85.81;95336.69;4966747;28;20485;-49
2022/08/26 05:39:12;;;;;;;8.02;6.75;;;20.50;65.00;;;17.32;83.20;95334.38;4935950;28;20489;-48
2022/08/26 05:41:41;;;;;;;9.48;6.95;;;20.80;64.60;;;17.55;81.46;95336.97;4979810;28;20022;-43
2022/08/26 05:44:17;;;;;;;8.10;6.30;;;21.10;64.10;;;17.79;81.14;95341.91;4935239;28;20030;-44
2022/08/26 05:46:44;;;;;;;8.77;6.60;;;21.40;63.60;;;18.05;80.41;95339.25;4965369;28;20480;-46
2022/08/26 05:49:14;;;;;;;9.07;6.28;;;21.60;63.00;;;18.30;79.12;95343.03;4970886;28;20026;-44
2022/08/26 05:51:45;;;;;;;9.38;6.80;;;21.90;62.50;;;18.56;77.98;95342.19;4967014;28;20105;-47
2022/08/26 05:54:14;;;;;;;11.02;6.90;;;22.20;62.00;;;18.81;76.62;95332.47;4943914;28;20053;-43
2022/08/26 05:56:40;;;;;;;11.02;6.28;;;22.50;61.40;;;19.04;75.75;95341.13;4968801;28;20026;-48
2022/08/26 05:59:13;;;;;;;10.07;6.70;;;22.80;60.90;;;19.28;75.08;95335.91;4954066;28;20025;-44
2022/08/26 06:01:42;;;;;;;8.73;6.63;;;23.00;60.40;;;19.54;74.08;95341.16;4969143;28;20022;-44
2022/08/26 06:04:08;;;;;;;7.50;6.47;;;23.20;59.80;;;19.77;72.16;95347.06;4968418;28;20030;-48
2022/08/26 06:06:40;;;;;;;9.77;6.47;;;23.50;59.40;;;20.00;71.88;95350.28;4953746;28;20054;-46
2022/08/26 06:09:07;;;;;;;6.90;5.70;;;23.80;59.00;;;20.20;70.78;95356.00;4951549;28;20058;-46
2022/08/26 06:11:33;;;;;;;6.22;5.63;;;24.10;58.60;;;20.50;69.76;95351.28;4950796;28;20050;-44
2022/08/26 06:14:05;;;;;;;7.50;6.60;;;24.40;58.10;;;20.79;68.70;95356.56;4950903;28;20125;-48
2022/08/26 06:16:37;;;;;;;7.30;6.60;;;24.80;57.50;;;21.13;67.39;95356.50;4950799;28;20073;-46
2022/08/26 06:19:06;;;;;;;12.15;8.05;;;25.10;56.90;;;21.47;66.73;95347.19;4951192;28;20113;-53
2022/08/26 06:21:38;;;;;;;9.35;6.80;;;25.50;56.40;;;21.76;64.67;95348.84;4935173;28;20030;-45
2022/08/26 06:27:08;;;;;;;6.80;6.10;;;26.10;55.10;;;22.37;62.02;95359.53;4964300;28;20393;-47
2022/08/26 06:29:35;;;;;;;7.90;6.35;;;26.50;54.50;;;22.62;61.15;95356.72;4960867;28;20275;-47
2022/08/26 06:32:03;;;;;;;7.00;6.40;;;26.80;53.90;;;22.85;60.65;95368.59;4947139;28;20145;-44
2022/08/26 06:34:30;;;;;;;8.07;6.80;;;27.10;53.30;;;23.08;59.85;95365.31;4958891;28;20396;-45
2022/08/26 06:37:01;;;;;;;8.18;7.38;;;27.40;52.70;;;23.32;59.10;95372.50;4971368;28;20525;-48
2022/08/26 06:39:28;;;;;;;6.88;6.25;;;27.70;52.00;;;23.62;58.04;95370.09;4967347;28;20038;-44
2022/08/26 06:41:57;;;;;;;7.05;6.35;;;27.90;51.50;;;23.86;57.16;95365.63;4963474;28;20156;-46
2022/08/26 06:44:27;;;;;;;6.97;6.38;;;28.10;50.80;;;24.05;56.38;95373.03;4951779;28;20031;-46
2022/08/26 06:46:55;;;;;;;8.32;7.32;;;28.40;50.30;;;24.23;56.04;95375.00;4951738;28;20026;-45
2022/08/26 06:49:33;;;;;;;8.50;6.60;;;28.70;49.80;;;24.33;55.86;95378.28;4957617;28;20452;-44
2022/08/26 06:51:59;;;;;;;8.70;7.03;;;28.90;49.30;;;24.34;55.43;95375.19;4951962;28;20018;-45
2022/08/26 06:54:30;;;;;;;7.53;6.00;;;29.00;49.00;;;24.35;56.04;95381.41;4966764;28;20030;-46
2022/08/26 06:57:09;;;;;;;10.68;6.78;;;28.90;48.70;;;24.27;56.27;95374.28;4953097;28;20366;-46
2022/08/26 06:59:41;;;;;;;7.30;6.60;;;28.90;48.60;;;24.17;56.95;95375.63;4934612;29;20481;-45
2022/08/26 07:02:10;;;;;;;8.23;6.68;;;28.90;49.00;;;24.14;56.76;95382.56;4950770;29;20030;-44
2022/08/26 07:04:36;;;;;;;8.45;6.28;;;28.90;48.20;;;24.17;57.17;95379.13;4952039;28;20081;-56
2022/08/26 07:07:12;;;;;;;7.78;6.97;;;29.00;48.10;;;24.24;57.17;95381.22;4949518;29;20051;-46
2022/08/26 07:09:38;;;;;;;9.50;6.57;;;29.20;47.80;;;24.38;56.14;95377.97;4951586;28;20030;-45
2022/08/26 07:12:08;;;;;;;8.02;7.05;;;29.30;47.60;;;24.30;56.16;95377.06;4950741;29;20073;-45
2022/08/26 07:14:34;;;;;;;8.52;6.70;;;29.40;47.30;;;24.38;56.54;95378.81;4961597;28;20049;-45
2022/08/26 07:17:01;;;;;;;7.55;6.85;;;29.40;47.20;;;24.51;56.26;95379.47;4954386;28;20421;-44
2022/08/26 07:19:27;;;;;;;7.63;6.93;;;29.50;47.00;;;24.57;56.30;95378.03;4955102;28;20065;-45
2022/08/26 07:21:53;;;;;;;7.00;6.25;;;29.50;47.00;;;24.67;56.08;95387.56;4955562;28;20050;-49
2022/08/26 07:24:18;;;;;;;10.98;7.13;;;29.60;46.70;;;24.72;55.51;95391.91;4938546;28;20033;-46
2022/08/26 07:26:44;;;;;;;7.40;6.45;;;29.70;46.50;;;24.65;55.40;95387.13;4938224;28;20065;-44
2022/08/26 07:29:11;;;;;;;7.68;6.88;;;29.80;46.30;;;24.76;55.42;95385.41;4953401;28;20088;-45
2022/08/26 07:31:37;;;;;;;7.63;6.93;;;30.10;46.00;;;25.03;54.62;95389.00;4970545;28;20022;-45
2022/08/26 07:34:03;;;;;;;8.00;7.30;;;30.40;45.50;;;25.34;53.96;95389.94;4904808;28;20582;-52
2022/08/26 07:36:29;;;;;;;10.10;6.70;;;30.80;45.10;;;25.76;53.32;95397.22;4955496;28;20022;-45
2022/08/26 07:39:07;;;;;;;10.93;6.57;;;31.00;44.70;;;26.03;52.11;95384.41;4964057;28;20503;-45
2022/08/26 07:41:39;;;;;;;7.40;6.80;;;31.20;44.30;;;26.36;51.72;95386.41;4965578;28;20018;-46
2022/08/26 07:44:11;;;;;;;7.75;7.07;;;31.60;44.10;;;26.66;49.84;95391.09;4956234;28;20164;-48
2022/08/26 07:46:41;;;;;;;11.68;7.65;;;32.00;43.40;;;26.95;49.31;95387.53;4955011;28;20039;-45
2022/08/26 07:49:07;;;;;;;7.93;7.13;;;32.40;42.80;;;27.16;48.10;95395.16;4948541;28;20217;-47
2022/08/26 07:51:50;;;;;;;10.85;7.50;;;32.80;42.20;;;27.07;48.66;95386.44;4954019;28;20023;-46
2022/08/26 07:54:25;;;;;;;9.48;7.38;;;33.20;42.00;;;27.44;48.15;95393.84;4953702;28;20034;-48
2022/08/26 07:56:54;;;;;;;7.07;6.47;;;33.60;40.80;;;27.71;47.58;95391.72;4953048;28;20133;-46
2022/08/26 07:59:20;;;;;;;8.30;7.03;;;34.00;40.30;;;27.68;47.00;95392.50;4953299;28;20046;-46
2022/08/26 08:01:50;;;;;;;7.72;6.78;;;34.30;39.70;;;28.18;47.08;95392.84;4954929;28;20085;-44
2022/08/26 08:04:28;;;;;;;9.00;7.70;;;34.60;39.10;;;28.62;44.94;95394.66;4953907;28;20476;-42
2022/08/26 08:07:00;;;;;;;8.00;7.25;;;35.00;38.50;;;28.87;44.56;95392.00;4953017;28;20043;-42
2022/08/26 08:09:29;;;;;;;;;;;35.40;37.80;;;28.56;44.38;95396.19;4954812;28;20030;-43
2022/08/26 08:12:05;;;;;;;8.63;7.75;;;35.70;38.40;;;28.45;44.86;95389.88;4952650;28;19946;-44
2022/08/26 08:14:31;;;;;;;12.25;8.18;;;35.70;37.10;;;28.36;44.95;95390.19;4938030;28;20140;-44
2022/08/26 08:16:57;;;;;;;9.05;8.15;;;35.60;36.80;;;28.33;44.91;95388.22;4972357;28;20053;-44
2022/08/26 08:19:23;;;;;;;13.88;7.95;;;35.50;36.60;;;28.43;45.76;95398.50;4973403;28;20385;-52
2022/08/26 08:21:49;;;;;;;8.88;7.93;;;35.30;36.60;;;28.18;44.91;95394.81;4973782;28;20045;-44
2022/08/26 08:24:15;;;;;;;9.32;8.10;;;35.10;36.40;;;27.84;45.94;95389.50;4959214;28;20058;-45
2022/08/26 08:26:44;;;;;;;8.75;7.55;;;34.90;36.40;;;27.83;46.36;95385.22;4960291;28;20068;-46
2022/08/26 08:29:11;;;;;;;11.73;8.73;;;34.50;36.50;;;27.88;46.59;95390.31;4969807;28;20033;-45
2022/08/26 08:31:38;;;;;;;8.73;7.78;;;34.30;36.80;;;27.83;45.95;95394.19;4957103;28;20121;-45
2022/08/26 08:34:04;;;;;;;11.13;8.93;;;34.00;36.90;;;27.83;46.45;95390.69;4957515;28;20513;-46
2022/08/26 08:36:33;;;;;;;9.98;8.38;;;33.80;37.00;;;27.83;46.86;95385.22;4960601;28;20117;-45
2022/08/26 08:38:59;;;;;;;10.48;9.00;;;33.70;37.40;;;27.82;46.11;95386.34;4956574;28;20026;-45
2022/08/26 08:41:55;;;;;;;9.13;8.13;;;33.70;37.30;;;28.14;46.08;95379.16;4952134;28;20032;-45
2022/08/26 08:44:25;;;;;;;11.10;8.18;;;34.10;37.20;;;28.58;44.81;95374.66;4962273;28;20030;-47
2022/08/26 08:47:03;;;;;;;10.13;8.32;;;34.50;36.80;;;29.01;43.10;95380.31;4950758;28;20024;-50
2022/08/26 08:49:33;;;;;;;9.30;8.48;;;34.90;36.20;;;29.26;42.62;95378.38;4965368;28;20027;-45
2022/08/26 08:52:15;;;;;;;10.30;8.40;;;35.40;35.70;;;29.61;41.49;95385.09;4960683;28;20109;-46
2022/08/26 08:54:41;;;;;;;9.18;7.68;;;35.90;35.10;;;29.76;40.90;95376.84;4970915;28;20121;-45
2022/08/26 08:57:24;;;;;;;8.75;6.53;;;36.30;34.70;;;30.04;40.17;95379.56;4966143;28;20536;-43
2022/08/26 09:00:15;;;;;;;8.13;7.40;;;36.70;34.20;;;30.30;39.70;95377.56;4950053;28;20116;-44
2022/08/26 09:03:00;;;;;;;6.97;6.15;;;36.90;33.60;;;30.52;39.09;95378.25;4981036;28;20033;-44
2022/08/26 09:05:40;;;;;;;7.50;6.90;;;37.20;33.10;;;30.66;38.67;95383.72;4963352;28;20037;-51
2022/08/26 09:08:16;;;;;;;10.52;6.68;;;37.40;32.40;;;30.80;37.59;95377.38;4965719;28;20134;-44
2022/08/26 09:11:06;;;;;;;6.55;5.95;;;37.60;32.00;;;30.64;36.94;95378.59;4971373;28;20030;-49
2022/08/26 09:13:34;;;;;;;8.13;5.80;;;37.60;31.40;;;30.74;36.62;95384.44;4971296;28;20022;-45
2022/08/26 09:16:38;;;;;;;7.43;6.13;;;37.60;31.10;;;30.75;36.35;95380.53;4971380;28;20026;-43
2022/08/26 09:19:39;;;;;;;6.95;6.30;;;37.50;30.70;;;30.81;36.41;95377.00;4971389;28;20038;-43
2022/08/26 09:22:04;;;;;;;6.82;6.07;;;37.40;30.70;;;30.87;37.22;95374.63;4971410;28;20030;-43
2022/08/26 09:24:38;;;;;;;7.47;5.60;;;37.40;30.80;;;30.85;36.29;95371.47;4971143;28;20067;-44
2022/08/26 09:27:04;;;;;;;8.10;5.60;;;37.40;30.30;;;30.73;36.62;95369.94;4971561;28;20032;-43
2022/08/26 09:29:42;;;;;;;7.07;5.88;;;37.30;30.20;;;30.57;36.90;95369.63;4971477;28;20022;-43
2022/08/26 09:32:37;;;;;;;7.93;7.13;;;37.30;30.00;;;30.37;37.04;95367.34;4963557;28;20026;-44
2022/08/26 09:35:34;;;;;;;9.07;6.32;;;37.20;30.10;;;30.14;37.36;95373.25;4948297;28;20046;-46
2022/08/26 09:38:18;;;;;;;8.80;5.05;;;37.10;30.00;;;30.24;37.59;95368.94;4967676;28;20129;-45
2022/08/26 09:41:01;;;;;;;4.97;4.47;;;37.00;29.90;;;30.40;36.45;95369.28;4967926;28;20030;-46
2022/08/26 09:43:36;;;;;;;5.45;4.57;;;37.10;29.80;;;30.66;36.85;95367.22;4969829;28;20022;-45
2022/08/26 09:46:31;;;;;;;6.57;4.90;;;37.20;29.80;;;30.89;35.96;95373.00;4967733;28;20541;-46
2022/08/26 09:49:37;;;;;;;5.38;4.88;;;37.30;29.70;;;31.06;34.91;95376.09;4947844;28;20034;-49
2022/08/26 09:52:26;;;;;;;5.93;5.20;;;37.50;29.50;;;31.29;34.83;95370.81;4964168;28;20070;-43
2022/08/26 09:55:22;;;;;;;8.55;5.07;;;37.80;29.30;;;31.23;34.81;95372.41;4954476;28;20030;-48
2022/08/26 09:57:54;;;;;;;7.93;5.13;;;38.00;29.20;;;31.48;35.37;95364.00;4963996;28;20104;-45
2022/08/26 10:00:57;;;;;;;6.13;5.38;;;38.10;29.00;;;31.73;34.25;95358.28;4951429;28;20029;-47
2022/08/26 10:03:36;;;;;;;5.85;5.18;;;38.50;28.90;;;31.99;33.89;95356.88;4967027;28;20022;-49
2022/08/26 10:06:18;;;;;;;6.15;5.50;;;38.80;28.40;;;31.65;34.09;95350.50;4970463;28;20042;-44
2022/08/26 10:08:58;;;;;;;6.30;5.45;;;39.10;28.20;;;31.85;33.68;95347.97;4971410;28;20022;-43
2022/08/26 10:12:14;;;;;;;5.78;5.05;;;39.20;27.90;;;32.07;33.06;95345.81;4971671;28;20038;-47
2022/08/26 10:15:02;;;;;;;7.65;5.40;;;39.40;27.80;;;32.45;32.81;95336.34;4956400;28;20038;-43
2022/08/26 10:18:13;;;;;;;8.57;5.43;;;39.70;27.50;;;32.83;32.04;95329.94;4961057;28;20019;-44
2022/08/26 10:21:22;;;;;;;11.25;6.80;;;40.10;27.50;;;33.16;32.03;95331.84;4971929;28;20562;-46
2022/08/26 10:24:00;;;;;;;14.38;7.45;;;40.50;27.10;;;33.60;30.39;95321.72;4955024;28;20034;-44
2022/08/26 10:27:08;;;;;;;7.63;6.65;;;40.90;26.60;;;34.24;30.16;95319.00;4976166;28;20116;-43
2022/08/26 10:29:59;;;;;;;7.60;5.50;;;41.30;26.40;;;34.65;29.60;95318.56;4960649;28;20026;-44
2022/08/26 10:32:55;;;;;;;10.70;6.67;;;41.70;26.10;;;34.89;28.30;95310.94;4952700;28;20030;-44
2022/08/26 10:35:22;;;;;;;8.90;5.72;;;42.00;25.90;;;34.08;29.02;95311.41;4979492;28;20036;-44
2022/08/26 10:38:03;;;;;;;7.53;5.40;;;42.20;25.30;;;34.04;28.93;95305.94;4949743;28;20077;-44
2022/08/26 10:41:25;;;;;;;9.45;5.65;;;42.20;24.90;;;34.21;29.84;95309.56;4950575;28;20066;-45
2022/08/26 10:43:59;;;;;;;6.20;5.28;;;42.30;25.10;;;34.47;29.93;95302.34;4948176;28;20030;-43
2022/08/26 10:46:46;;;;;;;6.63;5.78;;;42.20;25.00;;;35.03;28.46;95309.03;4948381;28;20137;-44
2022/08/26 10:49:16;;;;;;;8.15;5.57;;;42.40;25.00;;;35.24;28.06;95308.56;4950988;28;20046;-49
2022/08/26 10:52:36;;;;;;;5.47;4.97;;;42.60;24.80;;;35.29;27.96;95308.06;4950703;29;20027;-50